Terminal Aerodrome Forecast
Issued by NWS

Home | Current Version | Previous Version | Text Only | Print | Product List | Glossary On
Versions: 1 2 3 4 5 6 7 8 9 10 11 12 13 14 15 16
000
FTUS44 KLZK 230520
TAFPBF
TAF
KPBF 230520Z 2306/2406 05007KT P6SM VCTS SCT050CB BKN100 OVC250
      TEMPO 2308/2312 -TSRA BKN040CB OVC080
     FM231200 04004KT P6SM VCSH SCT025 BKN050 OVC100
      TEMPO 2312/2316 5SM -SHRA BR BKN025
     FM231900 06008KT P6SM SCT040 BKN150=

USA.gov is the U.S. government's official web portal to all federal, state and local government web resources and services.